sensor_id;sensor_type;location;lat;lon;timestamp;P1;durP1;ratioP1;P2;durP2;ratioP2
77105;SDS011;66057;54.718;18.426;2023-04-10T00:01:01;10.35;;;6.32;;
77105;SDS011;66057;54.718;18.426;2023-04-10T00:03:28;16.02;;;7.82;;
77105;SDS011;66057;54.718;18.426;2023-04-10T00:05:54;12.30;;;7.97;;
77105;SDS011;66057;54.718;18.426;2023-04-10T00:08:21;12.93;;;7.72;;
77105;SDS011;66057;54.718;18.426;2023-04-10T00:13:13;13.95;;;7.22;;
77105;SDS011;66057;54.718;18.426;2023-04-10T00:15:40;14.65;;;8.02;;
77105;SDS011;66057;54.718;18.426;2023-04-10T00:18:06;16.00;;;9.00;;
77105;SDS011;66057;54.718;18.426;2023-04-10T00:20:32;17.95;;;10.55;;
77105;SDS011;66057;54.718;18.426;2023-04-10T00:22:58;18.60;;;9.85;;
77105;SDS011;66057;54.718;18.426;2023-04-10T00:25:23;16.42;;;8.55;;
77105;SDS011;66057;54.718;18.426;2023-04-10T00:27:51;16.48;;;10.45;;
77105;SDS011;66057;54.718;18.426;2023-04-10T00:32:44;16.02;;;8.27;;
77105;SDS011;66057;54.718;18.426;2023-04-10T00:35:09;18.38;;;9.05;;
77105;SDS011;66057;54.718;18.426;2023-04-10T00:37:35;21.67;;;9.77;;
77105;SDS011;66057;54.718;18.426;2023-04-10T00:40:01;17.88;;;10.10;;
77105;SDS011;66057;54.718;18.426;2023-04-10T00:42:27;16.33;;;10.07;;
77105;SDS011;66057;54.718;18.426;2023-04-10T00:44:52;18.30;;;10.25;;
77105;SDS011;66057;54.718;18.426;2023-04-10T00:47:18;22.83;;;9.73;;
77105;SDS011;66057;54.718;18.426;2023-04-10T00:49:44;15.43;;;9.45;;
77105;SDS011;66057;54.718;18.426;2023-04-10T00:52:10;14.35;;;9.85;;
77105;SDS011;66057;54.718;18.426;2023-04-10T00:54:36;14.25;;;8.32;;
77105;SDS011;66057;54.718;18.426;2023-04-10T00:57:02;15.48;;;9.88;;
77105;SDS011;66057;54.718;18.426;2023-04-10T00:59:29;16.88;;;9.68;;
77105;SDS011;66057;54.718;18.426;2023-04-10T01:01:55;19.55;;;9.60;;
77105;SDS011;66057;54.718;18.426;2023-04-10T01:04:21;14.60;;;9.43;;
77105;SDS011;66057;54.718;18.426;2023-04-10T01:06:58;12.18;;;9.13;;
77105;SDS011;66057;54.718;18.426;2023-04-10T01:09:52;14.65;;;8.63;;
77105;SDS011;66057;54.718;18.426;2023-04-10T01:15:35;14.77;;;7.97;;
77105;SDS011;66057;54.718;18.426;2023-04-10T01:18:10;10.20;;;7.38;;
77105;SDS011;66057;54.718;18.426;2023-04-10T01:20:50;14.98;;;8.55;;
77105;SDS011;66057;54.718;18.426;2023-04-10T01:26:05;10.02;;;6.65;;
77105;SDS011;66057;54.718;18.426;2023-04-10T01:34:06;14.52;;;8.70;;
77105;SDS011;66057;54.718;18.426;2023-04-10T01:36:39;11.48;;;7.28;;
77105;SDS011;66057;54.718;18.426;2023-04-10T01:39:36;6.57;;;5.55;;
77105;SDS011;66057;54.718;18.426;2023-04-10T01:42:06;11.32;;;6.45;;
77105;SDS011;66057;54.718;18.426;2023-04-10T01:44:33;11.63;;;7.40;;
77105;SDS011;66057;54.718;18.426;2023-04-10T01:47:02;12.63;;;7.93;;
77105;SDS011;66057;54.718;18.426;2023-04-10T01:49:31;12.02;;;8.23;;
77105;SDS011;66057;54.718;18.426;2023-04-10T01:51:57;12.02;;;8.00;;
77105;SDS011;66057;54.718;18.426;2023-04-10T01:54:26;13.23;;;6.82;;
77105;SDS011;66057;54.718;18.426;2023-04-10T01:56:52;13.23;;;7.65;;
77105;SDS011;66057;54.718;18.426;2023-04-10T01:59:18;11.35;;;7.28;;
77105;SDS011;66057;54.718;18.426;2023-04-10T02:01:44;10.68;;;4.63;;
77105;SDS011;66057;54.718;18.426;2023-04-10T02:04:10;8.98;;;6.00;;
77105;SDS011;66057;54.718;18.426;2023-04-10T02:06:48;10.57;;;6.72;;
77105;SDS011;66057;54.718;18.426;2023-04-10T02:14:30;16.80;;;9.27;;
77105;SDS011;66057;54.718;18.426;2023-04-10T02:16:58;9.90;;;5.78;;
77105;SDS011;66057;54.718;18.426;2023-04-10T02:19:26;11.23;;;7.18;;
77105;SDS011;66057;54.718;18.426;2023-04-10T02:21:54;11.13;;;6.03;;
77105;SDS011;66057;54.718;18.426;2023-04-10T02:24:21;19.58;;;8.70;;
77105;SDS011;66057;54.718;18.426;2023-04-10T02:26:47;19.17;;;10.02;;
77105;SDS011;66057;54.718;18.426;2023-04-10T02:29:14;13.68;;;6.85;;
77105;SDS011;66057;54.718;18.426;2023-04-10T02:31:40;9.20;;;7.30;;
77105;SDS011;66057;54.718;18.426;2023-04-10T02:34:06;13.02;;;7.35;;
77105;SDS011;66057;54.718;18.426;2023-04-10T02:36:33;12.38;;;8.07;;
77105;SDS011;66057;54.718;18.426;2023-04-10T02:41:25;14.45;;;8.35;;
77105;SDS011;66057;54.718;18.426;2023-04-10T02:43:51;11.57;;;7.07;;
77105;SDS011;66057;54.718;18.426;2023-04-10T02:46:16;10.70;;;6.82;;
77105;SDS011;66057;54.718;18.426;2023-04-10T02:48:42;11.23;;;7.25;;
77105;SDS011;66057;54.718;18.426;2023-04-10T02:51:07;12.85;;;7.25;;
77105;SDS011;66057;54.718;18.426;2023-04-10T02:53:34;9.88;;;5.63;;
77105;SDS011;66057;54.718;18.426;2023-04-10T02:56:00;12.45;;;7.38;;
77105;SDS011;66057;54.718;18.426;2023-04-10T02:58:26;10.35;;;5.80;;
77105;SDS011;66057;54.718;18.426;2023-04-10T03:00:54;16.65;;;8.68;;
77105;SDS011;66057;54.718;18.426;2023-04-10T03:03:21;11.88;;;6.28;;
77105;SDS011;66057;54.718;18.426;2023-04-10T03:05:46;8.38;;;5.72;;
77105;SDS011;66057;54.718;18.426;2023-04-10T03:08:16;11.70;;;6.60;;
77105;SDS011;66057;54.718;18.426;2023-04-10T03:10:45;11.73;;;7.55;;
77105;SDS011;66057;54.718;18.426;2023-04-10T03:13:13;16.27;;;7.70;;
77105;SDS011;66057;54.718;18.426;2023-04-10T03:15:39;10.82;;;7.68;;
77105;SDS011;66057;54.718;18.426;2023-04-10T03:18:05;13.98;;;7.22;;
77105;SDS011;66057;54.718;18.426;2023-04-10T03:20:31;17.63;;;8.55;;
77105;SDS011;66057;54.718;18.426;2023-04-10T03:23:00;11.80;;;7.03;;
77105;SDS011;66057;54.718;18.426;2023-04-10T03:25:27;18.13;;;6.43;;
77105;SDS011;66057;54.718;18.426;2023-04-10T03:27:53;15.90;;;8.80;;
77105;SDS011;66057;54.718;18.426;2023-04-10T03:30:18;17.92;;;7.28;;
77105;SDS011;66057;54.718;18.426;2023-04-10T03:32:45;14.32;;;7.60;;
77105;SDS011;66057;54.718;18.426;2023-04-10T03:35:10;16.70;;;7.53;;
77105;SDS011;66057;54.718;18.426;2023-04-10T03:37:36;14.60;;;8.40;;
77105;SDS011;66057;54.718;18.426;2023-04-10T03:40:06;14.43;;;6.85;;
77105;SDS011;66057;54.718;18.426;2023-04-10T03:42:32;13.63;;;7.18;;
77105;SDS011;66057;54.718;18.426;2023-04-10T03:44:58;9.07;;;6.47;;
77105;SDS011;66057;54.718;18.426;2023-04-10T03:49:51;14.35;;;5.82;;
77105;SDS011;66057;54.718;18.426;2023-04-10T03:52:17;12.00;;;7.38;;
77105;SDS011;66057;54.718;18.426;2023-04-10T03:54:42;13.35;;;7.53;;
77105;SDS011;66057;54.718;18.426;2023-04-10T03:57:08;13.95;;;8.80;;
77105;SDS011;66057;54.718;18.426;2023-04-10T03:59:33;20.98;;;9.63;;
77105;SDS011;66057;54.718;18.426;2023-04-10T04:02:00;14.38;;;8.70;;
77105;SDS011;66057;54.718;18.426;2023-04-10T04:04:25;15.85;;;10.15;;
77105;SDS011;66057;54.718;18.426;2023-04-10T04:06:53;11.50;;;7.03;;
77105;SDS011;66057;54.718;18.426;2023-04-10T04:09:21;17.40;;;9.88;;
77105;SDS011;66057;54.718;18.426;2023-04-10T04:11:46;16.40;;;8.57;;
77105;SDS011;66057;54.718;18.426;2023-04-10T04:14:13;13.23;;;9.30;;
77105;SDS011;66057;54.718;18.426;2023-04-10T04:16:39;13.95;;;10.10;;
77105;SDS011;66057;54.718;18.426;2023-04-10T04:19:04;13.07;;;8.07;;
77105;SDS011;66057;54.718;18.426;2023-04-10T04:21:30;14.48;;;9.88;;
77105;SDS011;66057;54.718;18.426;2023-04-10T04:24:00;14.02;;;8.48;;
77105;SDS011;66057;54.718;18.426;2023-04-10T04:26:26;12.57;;;7.07;;
77105;SDS011;66057;54.718;18.426;2023-04-10T04:28:51;14.38;;;8.85;;
77105;SDS011;66057;54.718;18.426;2023-04-10T04:31:17;20.27;;;8.52;;
77105;SDS011;66057;54.718;18.426;2023-04-10T04:33:42;12.38;;;7.40;;
77105;SDS011;66057;54.718;18.426;2023-04-10T04:36:08;11.65;;;7.72;;
77105;SDS011;66057;54.718;18.426;2023-04-10T04:38:34;11.23;;;7.55;;
77105;SDS011;66057;54.718;18.426;2023-04-10T04:40:59;13.35;;;8.60;;
77105;SDS011;66057;54.718;18.426;2023-04-10T04:43:25;11.77;;;7.47;;
77105;SDS011;66057;54.718;18.426;2023-04-10T04:45:51;12.63;;;6.97;;
77105;SDS011;66057;54.718;18.426;2023-04-10T04:48:16;12.50;;;8.15;;
77105;SDS011;66057;54.718;18.426;2023-04-10T04:50:42;14.45;;;7.90;;
77105;SDS011;66057;54.718;18.426;2023-04-10T04:53:08;14.65;;;8.85;;
77105;SDS011;66057;54.718;18.426;2023-04-10T04:55:37;19.00;;;9.52;;
77105;SDS011;66057;54.718;18.426;2023-04-10T04:58:03;17.70;;;8.43;;
77105;SDS011;66057;54.718;18.426;2023-04-10T05:00:30;12.15;;;8.43;;
77105;SDS011;66057;54.718;18.426;2023-04-10T05:02:56;10.75;;;7.32;;
77105;SDS011;66057;54.718;18.426;2023-04-10T05:05:22;15.38;;;9.15;;
77105;SDS011;66057;54.718;18.426;2023-04-10T05:07:48;14.18;;;7.28;;
77105;SDS011;66057;54.718;18.426;2023-04-10T05:10:14;18.40;;;10.02;;
77105;SDS011;66057;54.718;18.426;2023-04-10T05:12:40;16.27;;;9.50;;
77105;SDS011;66057;54.718;18.426;2023-04-10T05:15:07;16.83;;;9.95;;
77105;SDS011;66057;54.718;18.426;2023-04-10T05:17:33;16.20;;;9.90;;
77105;SDS011;66057;54.718;18.426;2023-04-10T05:19:59;14.93;;;10.02;;
77105;SDS011;66057;54.718;18.426;2023-04-10T05:22:25;16.38;;;11.02;;
77105;SDS011;66057;54.718;18.426;2023-04-10T05:24:52;15.90;;;10.27;;
77105;SDS011;66057;54.718;18.426;2023-04-10T05:29:44;11.23;;;7.25;;
77105;SDS011;66057;54.718;18.426;2023-04-10T05:32:10;14.50;;;6.28;;
77105;SDS011;66057;54.718;18.426;2023-04-10T05:34:35;14.48;;;6.82;;
77105;SDS011;66057;54.718;18.426;2023-04-10T05:37:01;12.30;;;7.63;;
77105;SDS011;66057;54.718;18.426;2023-04-10T05:39:27;14.40;;;8.52;;
77105;SDS011;66057;54.718;18.426;2023-04-10T05:41:53;16.45;;;9.00;;
77105;SDS011;66057;54.718;18.426;2023-04-10T05:44:19;17.77;;;8.48;;
77105;SDS011;66057;54.718;18.426;2023-04-10T05:46:45;14.23;;;8.77;;
77105;SDS011;66057;54.718;18.426;2023-04-10T05:49:12;21.95;;;10.98;;
77105;SDS011;66057;54.718;18.426;2023-04-10T05:51:37;21.27;;;10.02;;
77105;SDS011;66057;54.718;18.426;2023-04-10T05:54:03;20.20;;;11.50;;
77105;SDS011;66057;54.718;18.426;2023-04-10T05:56:29;16.67;;;11.00;;
77105;SDS011;66057;54.718;18.426;2023-04-10T05:58:54;22.83;;;12.10;;
77105;SDS011;66057;54.718;18.426;2023-04-10T06:01:20;13.68;;;10.18;;
77105;SDS011;66057;54.718;18.426;2023-04-10T06:03:46;14.75;;;9.93;;
77105;SDS011;66057;54.718;18.426;2023-04-10T06:06:11;15.00;;;8.43;;
77105;SDS011;66057;54.718;18.426;2023-04-10T06:08:37;12.80;;;7.78;;
77105;SDS011;66057;54.718;18.426;2023-04-10T06:11:03;12.60;;;6.53;;
77105;SDS011;66057;54.718;18.426;2023-04-10T06:13:29;12.73;;;7.22;;
77105;SDS011;66057;54.718;18.426;2023-04-10T06:15:56;10.77;;;5.78;;
77105;SDS011;66057;54.718;18.426;2023-04-10T06:18:22;9.50;;;6.93;;
77105;SDS011;66057;54.718;18.426;2023-04-10T06:20:47;9.52;;;5.70;;
77105;SDS011;66057;54.718;18.426;2023-04-10T06:23:13;11.57;;;6.97;;
77105;SDS011;66057;54.718;18.426;2023-04-10T06:25:39;10.95;;;7.32;;
77105;SDS011;66057;54.718;18.426;2023-04-10T06:28:06;8.85;;;4.88;;
77105;SDS011;66057;54.718;18.426;2023-04-10T06:30:32;8.70;;;5.78;;
77105;SDS011;66057;54.718;18.426;2023-04-10T06:32:59;10.15;;;5.53;;
77105;SDS011;66057;54.718;18.426;2023-04-10T06:35:25;13.60;;;6.85;;
77105;SDS011;66057;54.718;18.426;2023-04-10T06:37:53;10.57;;;6.82;;
77105;SDS011;66057;54.718;18.426;2023-04-10T06:40:19;8.85;;;5.78;;
77105;SDS011;66057;54.718;18.426;2023-04-10T06:42:45;11.20;;;6.95;;
77105;SDS011;66057;54.718;18.426;2023-04-10T06:45:11;12.43;;;6.68;;
77105;SDS011;66057;54.718;18.426;2023-04-10T06:47:37;15.85;;;8.00;;
77105;SDS011;66057;54.718;18.426;2023-04-10T06:50:05;11.32;;;6.97;;
77105;SDS011;66057;54.718;18.426;2023-04-10T06:52:31;9.27;;;5.80;;
77105;SDS011;66057;54.718;18.426;2023-04-10T06:54:57;10.02;;;6.40;;
77105;SDS011;66057;54.718;18.426;2023-04-10T06:57:23;10.60;;;6.07;;
77105;SDS011;66057;54.718;18.426;2023-04-10T06:59:49;10.55;;;4.97;;
77105;SDS011;66057;54.718;18.426;2023-04-10T07:02:15;9.13;;;6.53;;
77105;SDS011;66057;54.718;18.426;2023-04-10T07:04:41;13.35;;;5.90;;
77105;SDS011;66057;54.718;18.426;2023-04-10T07:07:07;8.43;;;6.35;;
77105;SDS011;66057;54.718;18.426;2023-04-10T07:09:34;9.07;;;5.47;;
77105;SDS011;66057;54.718;18.426;2023-04-10T07:12:00;8.90;;;5.90;;
77105;SDS011;66057;54.718;18.426;2023-04-10T07:14:26;5.13;;;3.50;;
77105;SDS011;66057;54.718;18.426;2023-04-10T07:16:52;2.75;;;2.20;;
77105;SDS011;66057;54.718;18.426;2023-04-10T07:19:18;7.30;;;3.80;;
77105;SDS011;66057;54.718;18.426;2023-04-10T07:21:45;3.42;;;2.08;;
77105;SDS011;66057;54.718;18.426;2023-04-10T07:24:17;7.43;;;4.53;;
77105;SDS011;66057;54.718;18.426;2023-04-10T07:26:43;6.03;;;4.50;;
77105;SDS011;66057;54.718;18.426;2023-04-10T07:29:10;5.90;;;4.28;;
77105;SDS011;66057;54.718;18.426;2023-04-10T07:31:36;6.50;;;4.07;;
77105;SDS011;66057;54.718;18.426;2023-04-10T07:34:02;7.28;;;4.60;;
77105;SDS011;66057;54.718;18.426;2023-04-10T07:36:28;5.20;;;3.72;;
77105;SDS011;66057;54.718;18.426;2023-04-10T07:38:54;5.72;;;4.18;;
77105;SDS011;66057;54.718;18.426;2023-04-10T07:41:20;6.35;;;3.90;;
77105;SDS011;66057;54.718;18.426;2023-04-10T07:43:46;5.95;;;4.38;;
77105;SDS011;66057;54.718;18.426;2023-04-10T07:46:13;5.32;;;3.92;;
77105;SDS011;66057;54.718;18.426;2023-04-10T07:48:38;5.38;;;3.72;;
77105;SDS011;66057;54.718;18.426;2023-04-10T07:51:04;7.78;;;4.60;;
77105;SDS011;66057;54.718;18.426;2023-04-10T07:53:33;6.75;;;4.38;;
77105;SDS011;66057;54.718;18.426;2023-04-10T07:56:00;9.38;;;4.07;;
77105;SDS011;66057;54.718;18.426;2023-04-10T07:58:26;8.75;;;5.25;;
77105;SDS011;66057;54.718;18.426;2023-04-10T08:00:52;9.02;;;5.40;;
77105;SDS011;66057;54.718;18.426;2023-04-10T08:03:17;6.13;;;3.35;;
77105;SDS011;66057;54.718;18.426;2023-04-10T08:05:43;10.63;;;5.30;;
77105;SDS011;66057;54.718;18.426;2023-04-10T08:08:09;8.88;;;4.72;;
77105;SDS011;66057;54.718;18.426;2023-04-10T08:10:35;6.60;;;4.50;;
77105;SDS011;66057;54.718;18.426;2023-04-10T08:15:27;9.30;;;4.35;;
77105;SDS011;66057;54.718;18.426;2023-04-10T08:17:53;7.15;;;4.28;;
77105;SDS011;66057;54.718;18.426;2023-04-10T08:20:22;7.10;;;3.72;;
77105;SDS011;66057;54.718;18.426;2023-04-10T08:22:47;8.07;;;4.35;;
77105;SDS011;66057;54.718;18.426;2023-04-10T08:25:13;8.02;;;4.25;;
77105;SDS011;66057;54.718;18.426;2023-04-10T08:27:39;8.57;;;3.67;;
77105;SDS011;66057;54.718;18.426;2023-04-10T08:30:06;8.63;;;2.85;;
77105;SDS011;66057;54.718;18.426;2023-04-10T08:32:32;7.93;;;2.65;;
77105;SDS011;66057;54.718;18.426;2023-04-10T08:34:58;7.80;;;2.65;;
77105;SDS011;66057;54.718;18.426;2023-04-10T08:37:24;3.35;;;2.10;;
77105;SDS011;66057;54.718;18.426;2023-04-10T08:39:51;2.05;;;1.58;;
77105;SDS011;66057;54.718;18.426;2023-04-10T08:42:17;6.68;;;2.00;;
77105;SDS011;66057;54.718;18.426;2023-04-10T08:44:43;3.67;;;2.28;;
77105;SDS011;66057;54.718;18.426;2023-04-10T08:47:10;3.58;;;2.00;;
77105;SDS011;66057;54.718;18.426;2023-04-10T08:52:19;5.03;;;2.38;;
77105;SDS011;66057;54.718;18.426;2023-04-10T08:54:47;3.20;;;2.00;;
77105;SDS011;66057;54.718;18.426;2023-04-10T08:57:17;2.83;;;1.90;;
77105;SDS011;66057;54.718;18.426;2023-04-10T08:59:45;3.05;;;1.88;;
77105;SDS011;66057;54.718;18.426;2023-04-10T09:07:03;4.95;;;2.53;;
77105;SDS011;66057;54.718;18.426;2023-04-10T09:09:30;4.03;;;1.90;;
77105;SDS011;66057;54.718;18.426;2023-04-10T09:12:00;2.92;;;1.25;;
77105;SDS011;66057;54.718;18.426;2023-04-10T09:14:31;5.50;;;1.98;;
77105;SDS011;66057;54.718;18.426;2023-04-10T09:19:40;4.43;;;1.85;;
77105;SDS011;66057;54.718;18.426;2023-04-10T09:22:06;3.47;;;1.52;;
77105;SDS011;66057;54.718;18.426;2023-04-10T09:24:38;5.00;;;1.83;;
77105;SDS011;66057;54.718;18.426;2023-04-10T09:27:05;3.65;;;1.90;;
77105;SDS011;66057;54.718;18.426;2023-04-10T09:29:41;3.30;;;2.08;;
77105;SDS011;66057;54.718;18.426;2023-04-10T09:32:10;3.85;;;1.75;;
77105;SDS011;66057;54.718;18.426;2023-04-10T09:34:50;2.40;;;1.88;;
77105;SDS011;66057;54.718;18.426;2023-04-10T09:37:17;4.05;;;1.85;;
77105;SDS011;66057;54.718;18.426;2023-04-10T09:39:45;4.80;;;2.10;;
77105;SDS011;66057;54.718;18.426;2023-04-10T09:42:11;5.45;;;2.05;;
77105;SDS011;66057;54.718;18.426;2023-04-10T09:44:37;3.00;;;1.88;;
77105;SDS011;66057;54.718;18.426;2023-04-10T09:49:48;4.30;;;1.75;;
77105;SDS011;66057;54.718;18.426;2023-04-10T09:52:26;5.07;;;1.52;;
77105;SDS011;66057;54.718;18.426;2023-04-10T09:54:59;6.15;;;2.15;;
77105;SDS011;66057;54.718;18.426;2023-04-10T09:57:28;5.35;;;2.17;;
77105;SDS011;66057;54.718;18.426;2023-04-10T09:59:56;4.70;;;2.10;;
77105;SDS011;66057;54.718;18.426;2023-04-10T10:02:23;3.58;;;2.22;;
77105;SDS011;66057;54.718;18.426;2023-04-10T10:04:51;3.33;;;1.60;;
77105;SDS011;66057;54.718;18.426;2023-04-10T10:07:18;7.47;;;3.67;;
77105;SDS011;66057;54.718;18.426;2023-04-10T10:09:48;6.45;;;2.92;;
77105;SDS011;66057;54.718;18.426;2023-04-10T10:13:02;3.00;;;2.17;;
77105;SDS011;66057;54.718;18.426;2023-04-10T10:18:16;5.57;;;2.50;;
77105;SDS011;66057;54.718;18.426;2023-04-10T10:20:50;4.22;;;2.30;;
77105;SDS011;66057;54.718;18.426;2023-04-10T10:25:44;3.05;;;2.28;;
77105;SDS011;66057;54.718;18.426;2023-04-10T10:28:12;5.25;;;2.45;;
77105;SDS011;66057;54.718;18.426;2023-04-10T10:30:39;3.65;;;1.90;;
77105;SDS011;66057;54.718;18.426;2023-04-10T10:33:06;3.83;;;1.80;;
77105;SDS011;66057;54.718;18.426;2023-04-10T10:35:36;3.30;;;1.90;;
77105;SDS011;66057;54.718;18.426;2023-04-10T10:38:03;2.53;;;1.98;;
77105;SDS011;66057;54.718;18.426;2023-04-10T10:43:36;3.03;;;1.63;;
77105;SDS011;66057;54.718;18.426;2023-04-10T10:46:15;5.07;;;2.33;;
77105;SDS011;66057;54.718;18.426;2023-04-10T10:48:56;3.65;;;2.03;;
77105;SDS011;66057;54.718;18.426;2023-04-10T10:51:23;4.82;;;2.78;;
77105;SDS011;66057;54.718;18.426;2023-04-10T10:53:48;4.60;;;1.77;;
77105;SDS011;66057;54.718;18.426;2023-04-10T10:58:46;6.40;;;2.80;;
77105;SDS011;66057;54.718;18.426;2023-04-10T11:01:13;5.70;;;3.05;;
77105;SDS011;66057;54.718;18.426;2023-04-10T11:03:39;5.82;;;2.50;;
77105;SDS011;66057;54.718;18.426;2023-04-10T11:06:06;3.92;;;2.10;;
77105;SDS011;66057;54.718;18.426;2023-04-10T11:08:40;4.72;;;2.47;;
77105;SDS011;66057;54.718;18.426;2023-04-10T11:13:41;4.35;;;2.17;;
77105;SDS011;66057;54.718;18.426;2023-04-10T11:21:31;5.30;;;2.75;;
77105;SDS011;66057;54.718;18.426;2023-04-10T11:31:44;5.80;;;2.58;;
77105;SDS011;66057;54.718;18.426;2023-04-10T11:34:12;4.03;;;3.20;;
77105;SDS011;66057;54.718;18.426;2023-04-10T11:36:40;5.47;;;2.40;;
77105;SDS011;66057;54.718;18.426;2023-04-10T11:39:08;5.63;;;2.15;;
77105;SDS011;66057;54.718;18.426;2023-04-10T11:41:41;1.80;;;1.55;;
77105;SDS011;66057;54.718;18.426;2023-04-10T11:44:14;3.10;;;1.95;;
77105;SDS011;66057;54.718;18.426;2023-04-10T11:46:46;5.63;;;2.20;;
77105;SDS011;66057;54.718;18.426;2023-04-10T11:49:17;4.95;;;2.33;;
77105;SDS011;66057;54.718;18.426;2023-04-10T11:51:45;3.83;;;1.80;;
77105;SDS011;66057;54.718;18.426;2023-04-10T11:54:13;4.85;;;1.92;;
77105;SDS011;66057;54.718;18.426;2023-04-10T11:56:41;4.63;;;2.50;;
77105;SDS011;66057;54.718;18.426;2023-04-10T11:59:08;3.92;;;2.63;;
77105;SDS011;66057;54.718;18.426;2023-04-10T12:01:39;5.22;;;2.15;;
77105;SDS011;66057;54.718;18.426;2023-04-10T12:04:12;4.88;;;2.33;;
77105;SDS011;66057;54.718;18.426;2023-04-10T12:06:41;3.53;;;2.53;;
77105;SDS011;66057;54.718;18.426;2023-04-10T12:09:12;4.35;;;2.38;;
77105;SDS011;66057;54.718;18.426;2023-04-10T12:11:48;4.55;;;2.13;;
77105;SDS011;66057;54.718;18.426;2023-04-10T12:14:20;5.38;;;2.60;;
77105;SDS011;66057;54.718;18.426;2023-04-10T12:16:48;2.65;;;1.90;;
77105;SDS011;66057;54.718;18.426;2023-04-10T12:19:14;5.38;;;2.50;;
77105;SDS011;66057;54.718;18.426;2023-04-10T12:21:42;3.90;;;1.92;;
77105;SDS011;66057;54.718;18.426;2023-04-10T12:24:09;4.50;;;2.35;;
77105;SDS011;66057;54.718;18.426;2023-04-10T12:26:36;4.15;;;2.30;;
77105;SDS011;66057;54.718;18.426;2023-04-10T12:29:02;4.93;;;2.45;;
77105;SDS011;66057;54.718;18.426;2023-04-10T12:31:34;5.18;;;2.38;;
77105;SDS011;66057;54.718;18.426;2023-04-10T12:34:01;4.45;;;1.83;;
77105;SDS011;66057;54.718;18.426;2023-04-10T12:36:30;3.88;;;2.35;;
77105;SDS011;66057;54.718;18.426;2023-04-10T12:39:02;5.25;;;2.30;;
77105;SDS011;66057;54.718;18.426;2023-04-10T12:41:30;4.32;;;2.10;;
77105;SDS011;66057;54.718;18.426;2023-04-10T12:44:10;3.08;;;1.92;;
77105;SDS011;66057;54.718;18.426;2023-04-10T12:46:37;4.03;;;2.33;;
77105;SDS011;66057;54.718;18.426;2023-04-10T12:49:08;3.78;;;2.20;;
77105;SDS011;66057;54.718;18.426;2023-04-10T12:54:10;3.03;;;1.98;;
77105;SDS011;66057;54.718;18.426;2023-04-10T12:56:40;6.35;;;2.22;;
77105;SDS011;66057;54.718;18.426;2023-04-10T12:59:09;3.85;;;2.50;;
77105;SDS011;66057;54.718;18.426;2023-04-10T13:01:37;5.70;;;2.85;;
77105;SDS011;66057;54.718;18.426;2023-04-10T13:04:03;4.63;;;2.40;;
77105;SDS011;66057;54.718;18.426;2023-04-10T13:06:29;3.03;;;2.13;;
77105;SDS011;66057;54.718;18.426;2023-04-10T13:08:54;4.18;;;2.10;;
77105;SDS011;66057;54.718;18.426;2023-04-10T13:11:20;4.13;;;2.40;;
77105;SDS011;66057;54.718;18.426;2023-04-10T13:13:47;6.13;;;2.30;;
77105;SDS011;66057;54.718;18.426;2023-04-10T13:16:15;5.72;;;2.50;;
77105;SDS011;66057;54.718;18.426;2023-04-10T13:18:40;4.65;;;2.33;;
77105;SDS011;66057;54.718;18.426;2023-04-10T13:21:07;5.30;;;2.20;;
77105;SDS011;66057;54.718;18.426;2023-04-10T13:23:33;4.68;;;2.33;;
77105;SDS011;66057;54.718;18.426;2023-04-10T13:25:58;4.18;;;2.53;;
77105;SDS011;66057;54.718;18.426;2023-04-10T13:28:24;4.68;;;2.50;;
77105;SDS011;66057;54.718;18.426;2023-04-10T13:30:50;4.97;;;2.17;;
77105;SDS011;66057;54.718;18.426;2023-04-10T13:33:16;4.03;;;2.42;;
77105;SDS011;66057;54.718;18.426;2023-04-10T13:35:42;6.93;;;2.58;;
77105;SDS011;66057;54.718;18.426;2023-04-10T13:38:08;4.25;;;2.80;;
77105;SDS011;66057;54.718;18.426;2023-04-10T13:40:36;4.68;;;2.85;;
77105;SDS011;66057;54.718;18.426;2023-04-10T13:43:01;4.55;;;2.63;;
77105;SDS011;66057;54.718;18.426;2023-04-10T13:45:28;4.60;;;2.42;;
77105;SDS011;66057;54.718;18.426;2023-04-10T13:47:53;5.35;;;2.35;;
77105;SDS011;66057;54.718;18.426;2023-04-10T13:50:19;6.40;;;2.80;;
77105;SDS011;66057;54.718;18.426;2023-04-10T13:52:45;4.50;;;2.35;;
77105;SDS011;66057;54.718;18.426;2023-04-10T13:55:11;3.17;;;2.50;;
77105;SDS011;66057;54.718;18.426;2023-04-10T13:57:36;3.67;;;2.08;;
77105;SDS011;66057;54.718;18.426;2023-04-10T14:00:03;5.60;;;2.70;;
77105;SDS011;66057;54.718;18.426;2023-04-10T14:02:29;5.68;;;3.30;;
77105;SDS011;66057;54.718;18.426;2023-04-10T14:04:55;5.75;;;2.72;;
77105;SDS011;66057;54.718;18.426;2023-04-10T14:07:20;5.07;;;2.47;;
77105;SDS011;66057;54.718;18.426;2023-04-10T14:09:46;5.45;;;2.88;;
77105;SDS011;66057;54.718;18.426;2023-04-10T14:12:12;5.07;;;3.22;;
77105;SDS011;66057;54.718;18.426;2023-04-10T14:14:41;4.90;;;2.88;;
77105;SDS011;66057;54.718;18.426;2023-04-10T14:17:07;6.53;;;2.40;;
77105;SDS011;66057;54.718;18.426;2023-04-10T14:19:33;3.53;;;2.35;;
77105;SDS011;66057;54.718;18.426;2023-04-10T14:21:59;5.55;;;2.58;;
77105;SDS011;66057;54.718;18.426;2023-04-10T14:24:25;4.35;;;3.05;;
77105;SDS011;66057;54.718;18.426;2023-04-10T14:26:51;7.43;;;2.45;;
77105;SDS011;66057;54.718;18.426;2023-04-10T14:29:18;4.28;;;2.90;;
77105;SDS011;66057;54.718;18.426;2023-04-10T14:31:43;4.80;;;2.60;;
77105;SDS011;66057;54.718;18.426;2023-04-10T14:34:10;4.57;;;2.72;;
77105;SDS011;66057;54.718;18.426;2023-04-10T14:36:36;4.68;;;2.42;;
77105;SDS011;66057;54.718;18.426;2023-04-10T14:39:02;5.20;;;2.78;;
77105;SDS011;66057;54.718;18.426;2023-04-10T14:41:28;4.13;;;2.85;;
77105;SDS011;66057;54.718;18.426;2023-04-10T14:43:54;4.57;;;2.80;;
77105;SDS011;66057;54.718;18.426;2023-04-10T14:46:19;4.97;;;2.42;;
77105;SDS011;66057;54.718;18.426;2023-04-10T14:48:45;5.32;;;2.70;;
77105;SDS011;66057;54.718;18.426;2023-04-10T14:51:11;4.38;;;3.08;;
77105;SDS011;66057;54.718;18.426;2023-04-10T14:56:12;6.03;;;2.90;;
77105;SDS011;66057;54.718;18.426;2023-04-10T14:58:39;4.00;;;2.88;;
77105;SDS011;66057;54.718;18.426;2023-04-10T15:01:09;7.68;;;3.28;;
77105;SDS011;66057;54.718;18.426;2023-04-10T15:03:36;4.18;;;2.75;;
77105;SDS011;66057;54.718;18.426;2023-04-10T15:06:02;7.00;;;3.08;;
77105;SDS011;66057;54.718;18.426;2023-04-10T15:08:28;4.63;;;3.13;;
77105;SDS011;66057;54.718;18.426;2023-04-10T15:10:54;4.95;;;3.08;;
77105;SDS011;66057;54.718;18.426;2023-04-10T15:13:21;5.05;;;3.03;;
77105;SDS011;66057;54.718;18.426;2023-04-10T15:15:47;3.97;;;2.53;;
77105;SDS011;66057;54.718;18.426;2023-04-10T15:18:14;5.03;;;2.83;;
77105;SDS011;66057;54.718;18.426;2023-04-10T15:20:43;5.65;;;3.25;;
77105;SDS011;66057;54.718;18.426;2023-04-10T15:23:10;4.38;;;2.72;;
77105;SDS011;66057;54.718;18.426;2023-04-10T15:25:35;5.50;;;2.80;;
77105;SDS011;66057;54.718;18.426;2023-04-10T15:28:01;6.45;;;3.10;;
77105;SDS011;66057;54.718;18.426;2023-04-10T15:30:27;6.97;;;3.47;;
77105;SDS011;66057;54.718;18.426;2023-04-10T15:32:53;6.32;;;3.80;;
77105;SDS011;66057;54.718;18.426;2023-04-10T15:35:18;5.38;;;3.28;;
77105;SDS011;66057;54.718;18.426;2023-04-10T15:37:45;5.75;;;2.92;;
77105;SDS011;66057;54.718;18.426;2023-04-10T15:40:11;4.97;;;3.60;;
77105;SDS011;66057;54.718;18.426;2023-04-10T15:42:37;6.15;;;2.90;;
77105;SDS011;66057;54.718;18.426;2023-04-10T15:45:03;4.50;;;3.20;;